Time;durP1;ratioP1;P1;durP2;ratioP2;P2;SDS_P1;SDS_P2;PMS_P1;PMS_P2;Temp;Humidity;BMP_temperature;BMP_pressure;BME280_temperature;BME280_humidity;BME280_pressure;Samples;Min_cycle;Max_cycle;Signal;HPM_P1;HPM_P2
2023/01/23 00:01:53;;;;;;;33.73;16.93;;;2.90;99.90;;;;;;4922904;28;20271;-67
2023/01/23 00:04:42;;;;;;;30.93;16.40;;;3.00;99.90;;;;;;4939933;28;20303;-69
2023/01/23 00:07:31;;;;;;;36.00;16.63;;;2.90;99.90;;;;;;4928428;28;20241;-68
2023/01/23 00:10:19;;;;;;;31.23;16.13;;;3.00;99.90;;;;;;4921245;28;20710;-69
2023/01/23 00:13:10;;;;;;;35.50;17.33;;;3.10;99.90;;;;;;4923207;28;20225;-70
2023/01/23 00:15:59;;;;;;;35.03;17.43;;;3.10;99.90;;;;;;4924915;28;20236;-70
2023/01/23 00:18:48;;;;;;;33.57;17.53;;;3.10;99.90;;;;;;4932360;28;20239;-70
2023/01/23 00:21:38;;;;;;;36.67;17.70;;;3.10;99.90;;;;;;4926542;28;20233;-69
2023/01/23 00:24:27;;;;;;;30.73;16.23;;;3.20;99.90;;;;;;4934569;28;20741;-69
2023/01/23 00:27:22;;;;;;;31.57;17.27;;;3.10;99.90;;;;;;4931262;28;20224;-71
2023/01/23 00:30:14;;;;;;;35.57;16.57;;;3.10;99.90;;;;;;4942624;28;20232;-70
2023/01/23 00:33:03;;;;;;;31.53;16.20;;;3.00;99.90;;;;;;4946672;28;20247;-71
2023/01/23 00:35:54;;;;;;;33.23;15.70;;;3.00;99.90;;;;;;4933679;28;20239;-71
2023/01/23 00:38:44;;;;;;;32.07;15.97;;;3.10;99.90;;;;;;4948174;28;20223;-71
2023/01/23 00:41:35;;;;;;;29.40;16.93;;;3.10;99.90;;;;;;4925518;28;20315;-72
2023/01/23 00:44:25;;;;;;;31.17;16.63;;;3.10;99.90;;;;;;4919235;28;20228;-71
2023/01/23 00:47:18;;;;;;;28.80;15.60;;;3.20;99.90;;;;;;4940004;28;20220;-72
2023/01/23 00:50:10;;;;;;;31.43;16.07;;;3.10;99.90;;;;;;4945355;28;20228;-70
2023/01/23 00:52:59;;;;;;;38.67;16.50;;;3.10;99.90;;;;;;4920890;28;20796;-72
2023/01/23 00:55:48;;;;;;;31.97;16.57;;;3.00;99.90;;;;;;4948975;28;20245;-71
2023/01/23 00:58:38;;;;;;;35.57;16.37;;;2.80;99.90;;;;;;4943797;28;20250;-71
2023/01/23 01:01:30;;;;;;;33.80;16.90;;;2.80;99.90;;;;;;4918588;29;20234;-71
2023/01/23 01:04:21;;;;;;;35.13;16.73;;;2.80;99.90;;;;;;4950309;28;20302;-70
2023/01/23 01:07:09;;;;;;;30.73;16.63;;;2.90;99.90;;;;;;4924111;28;20236;-70
2023/01/23 01:09:59;;;;;;;33.60;16.43;;;3.00;99.90;;;;;;4926314;28;20251;-71
2023/01/23 01:12:48;;;;;;;35.53;17.67;;;3.00;99.90;;;;;;4915634;28;25594;-70
2023/01/23 01:15:37;;;;;;;31.60;17.03;;;2.80;99.90;;;;;;4923666;28;20295;-71
2023/01/23 01:18:26;;;;;;;31.43;15.83;;;3.00;99.90;;;;;;4947557;28;21028;-72
2023/01/23 01:21:17;;;;;;;40.97;17.50;;;2.90;99.90;;;;;;4917582;28;20270;-71
2023/01/23 01:24:07;;;;;;;35.47;16.90;;;2.80;99.90;;;;;;4945406;28;20232;-71
2023/01/23 01:26:56;;;;;;;33.33;16.83;;;2.70;99.90;;;;;;4920454;28;20367;-72
2023/01/23 01:29:44;;;;;;;35.37;17.93;;;2.70;99.90;;;;;;4914642;28;20232;-71
2023/01/23 01:32:36;;;;;;;29.77;16.50;;;2.90;99.90;;;;;;4933639;28;20244;-72
2023/01/23 01:35:25;;;;;;;26.23;15.73;;;2.80;99.90;;;;;;4946850;28;20239;-72
2023/01/23 01:38:16;;;;;;;32.50;16.83;;;2.80;99.90;;;;;;4918710;28;20296;-73
2023/01/23 01:41:05;;;;;;;33.43;16.77;;;2.90;99.90;;;;;;4944707;28;20229;-72
2023/01/23 01:43:55;;;;;;;33.27;17.53;;;3.00;99.90;;;;;;4941381;28;20641;-72
2023/01/23 01:46:45;;;;;;;29.70;16.20;;;3.10;99.90;;;;;;4947461;28;20371;-72
2023/01/23 01:49:34;;;;;;;34.33;16.60;;;3.20;99.90;;;;;;4944871;28;20237;-72
2023/01/23 01:52:24;;;;;;;35.53;16.53;;;3.00;99.90;;;;;;4922050;29;20229;-71
2023/01/23 01:55:14;;;;;;;35.13;17.37;;;3.20;99.90;;;;;;4924895;28;20231;-70
2023/01/23 01:58:03;;;;;;;35.47;17.23;;;3.10;99.90;;;;;;4936264;28;20271;-70
2023/01/23 02:00:52;;;;;;;35.33;18.23;;;3.10;99.90;;;;;;4924624;28;20627;-67
2023/01/23 02:03:46;;;;;;;33.63;16.53;;;3.10;99.90;;;;;;4946992;28;20782;-68
2023/01/23 02:06:35;;;;;;;34.20;16.87;;;3.20;99.90;;;;;;4929538;28;20355;-68
2023/01/23 02:09:26;;;;;;;32.23;16.73;;;3.20;99.90;;;;;;4937857;28;20261;-68
2023/01/23 02:12:17;;;;;;;34.83;16.97;;;3.00;99.90;;;;;;4930263;28;20256;-67
2023/01/23 02:15:08;;;;;;;33.20;16.17;;;3.00;99.90;;;;;;4920227;28;20287;-68
2023/01/23 02:17:57;;;;;;;31.13;15.90;;;3.00;99.90;;;;;;4936739;28;20229;-67
2023/01/23 02:20:47;;;;;;;36.57;16.73;;;3.00;99.90;;;;;;4927572;28;20232;-68
2023/01/23 02:23:44;;;;;;;35.07;16.70;;;3.10;99.90;;;;;;4949367;28;20224;-68
2023/01/23 02:26:42;;;;;;;36.17;17.73;;;3.10;99.90;;;;;;4954313;28;20224;-69
2023/01/23 02:29:41;;;;;;;33.53;16.87;;;3.10;99.90;;;;;;4952516;28;20228;-69
2023/01/23 02:32:30;;;;;;;42.67;17.00;;;3.00;99.90;;;;;;4939725;28;20348;-70
2023/01/23 02:35:26;;;;;;;36.80;17.90;;;2.80;99.90;;;;;;4952299;28;20717;-70
2023/01/23 02:38:27;;;;;;;36.47;17.47;;;2.90;99.90;;;;;;4930928;28;20238;-70
2023/01/23 02:41:23;;;;;;;38.40;18.10;;;2.90;99.90;;;;;;4952599;28;20232;-70
2023/01/23 02:44:18;;;;;;;36.43;17.90;;;2.90;99.90;;;;;;4955372;28;20820;-68
2023/01/23 02:47:12;;;;;;;39.23;18.83;;;3.10;99.90;;;;;;4919692;29;20230;-70
2023/01/23 02:50:02;;;;;;;37.10;18.67;;;3.10;99.90;;;;;;4933593;28;20232;-71
2023/01/23 02:52:53;;;;;;;43.40;20.10;;;3.00;99.90;;;;;;4921203;28;20973;-71
2023/01/23 02:55:42;;;;;;;39.27;17.50;;;3.10;99.90;;;;;;4923099;28;20228;-70
2023/01/23 03:01:39;;;;;;;37.57;17.87;;;3.20;99.90;;;;;;4943416;28;20242;-67
2023/01/23 03:04:30;;;;;;;37.23;17.33;;;3.30;99.90;;;;;;4948485;28;20217;-69
2023/01/23 03:07:20;;;;;;;44.63;18.93;;;3.10;99.90;;;;;;4932080;28;20229;-68
2023/01/23 03:10:10;;;;;;;35.03;17.57;;;3.00;99.90;;;;;;4918195;28;20713;-68
2023/01/23 03:13:06;;;;;;;35.47;17.20;;;3.10;99.90;;;;;;4950139;28;20272;-70
2023/01/23 03:15:55;;;;;;;35.97;17.53;;;3.00;99.90;;;;;;4916202;28;20297;-68
2023/01/23 03:18:46;;;;;;;35.20;17.40;;;3.10;99.90;;;;;;4944059;28;20221;-70
2023/01/23 03:21:43;;;;;;;37.53;17.23;;;2.90;99.90;;;;;;4945860;28;20323;-68
2023/01/23 03:24:34;;;;;;;35.33;17.97;;;3.00;99.90;;;;;;4932897;28;20255;-67
2023/01/23 03:27:23;;;;;;;33.47;16.70;;;3.10;99.90;;;;;;4931916;28;20221;-68
2023/01/23 03:30:15;;;;;;;39.83;18.93;;;3.20;99.90;;;;;;4927557;28;20279;-67
2023/01/23 03:33:05;;;;;;;41.13;19.00;;;3.20;99.90;;;;;;4938169;28;20224;-70
2023/01/23 03:35:55;;;;;;;33.50;17.73;;;3.40;99.90;;;;;;4930407;28;20327;-68
2023/01/23 03:41:23;;;;;;;36.27;17.47;;;3.40;99.90;;;;;;4924425;28;20573;-69
2023/01/23 03:41:52;;;;;;;39.10;18.60;;;3.30;99.90;;;;;;4947532;28;20231;-68
2023/01/23 03:44:43;;;;;;;37.13;18.87;;;3.20;99.90;;;;;;4937407;28;20256;-69
2023/01/23 03:47:32;;;;;;;40.07;18.70;;;3.20;99.90;;;;;;4931846;28;20244;-68
2023/01/23 03:50:21;;;;;;;43.83;18.67;;;3.10;99.90;;;;;;4933836;28;20224;-69
2023/01/23 03:53:11;;;;;;;42.93;20.83;;;3.00;99.90;;;;;;4950188;28;20670;-68
2023/01/23 03:56:00;;;;;;;41.07;18.83;;;3.00;99.90;;;;;;4928856;28;20228;-68
2023/01/23 03:58:53;;;;;;;43.50;19.37;;;3.30;99.90;;;;;;4933892;28;20339;-69
2023/01/23 04:01:42;;;;;;;44.67;19.73;;;3.10;99.90;;;;;;4920234;28;20548;-68
2023/01/23 04:04:31;;;;;;;40.27;20.13;;;3.10;99.90;;;;;;4921952;28;20237;-70
2023/01/23 04:07:20;;;;;;;40.27;20.43;;;2.90;99.90;;;;;;4952898;28;20224;-68
2023/01/23 04:10:12;;;;;;;44.80;20.37;;;2.90;99.90;;;;;;4947171;28;20631;-69
2023/01/23 04:13:02;;;;;;;43.53;20.83;;;2.80;99.90;;;;;;4926713;28;20229;-69
2023/01/23 04:15:51;;;;;;;48.37;21.03;;;3.00;99.90;;;;;;4922382;28;20676;-68
2023/01/23 04:18:40;;;;;;;51.97;21.63;;;3.00;99.90;;;;;;4925371;29;20250;-67
2023/01/23 04:21:30;;;;;;;44.53;21.13;;;2.90;99.90;;;;;;4940156;28;20232;-69
2023/01/23 04:24:18;;;;;;;47.20;21.03;;;3.10;99.90;;;;;;4933880;28;20224;-67
2023/01/23 04:27:09;;;;;;;47.37;21.30;;;3.00;99.90;;;;;;4941582;28;20224;-68
2023/01/23 04:29:58;;;;;;;47.20;20.17;;;3.10;99.90;;;;;;4952620;28;20233;-69
2023/01/23 04:32:48;;;;;;;48.57;22.33;;;2.80;99.90;;;;;;4945244;28;20236;-70
2023/01/23 04:35:39;;;;;;;48.07;20.87;;;2.80;99.90;;;;;;4942683;28;20252;-68
2023/01/23 04:38:30;;;;;;;49.37;21.23;;;2.80;99.90;;;;;;4935317;28;20244;-70
2023/01/23 04:41:31;;;;;;;48.63;21.30;;;2.70;99.90;;;;;;4931953;28;20254;-69
2023/01/23 04:44:30;;;;;;;47.23;21.73;;;2.70;99.90;;;;;;4936111;28;20343;-70
2023/01/23 04:47:39;;;;;;;47.90;21.60;;;2.80;99.90;;;;;;4922933;28;21527;-69
2023/01/23 04:50:33;;;;;;;47.50;22.03;;;2.80;99.90;;;;;;4940887;28;20322;-68
2023/01/23 04:53:21;;;;;;;50.67;22.77;;;2.80;99.90;;;;;;4919715;28;20555;-69
2023/01/23 04:56:18;;;;;;;46.97;21.77;;;2.80;99.90;;;;;;4946551;28;20264;-70
2023/01/23 04:59:07;;;;;;;46.63;21.57;;;2.80;99.90;;;;;;4950460;28;20236;-69
2023/01/23 05:01:58;;;;;;;47.20;21.13;;;2.70;99.90;;;;;;4922562;28;20227;-70
2023/01/23 05:04:46;;;;;;;50.07;22.40;;;2.60;99.90;;;;;;4929139;28;20229;-69
2023/01/23 05:07:35;;;;;;;49.60;21.90;;;2.80;99.90;;;;;;4948905;28;20238;-69
2023/01/23 05:10:27;;;;;;;51.20;22.90;;;2.80;99.90;;;;;;4936875;28;20349;-73
2023/01/23 05:13:18;;;;;;;49.60;22.53;;;2.70;99.90;;;;;;4946102;28;20273;-73
2023/01/23 05:16:08;;;;;;;47.73;20.97;;;2.80;99.90;;;;;;4924218;28;20259;-72
2023/01/23 05:19:18;;;;;;;54.30;23.27;;;2.60;99.90;;;;;;4925533;28;20989;-70
2023/01/23 05:22:07;;;;;;;50.03;22.70;;;2.60;99.90;;;;;;4937563;28;20406;-70
2023/01/23 05:24:59;;;;;;;48.87;21.93;;;2.70;99.90;;;;;;4931763;28;20244;-70
2023/01/23 05:27:50;;;;;;;48.83;22.80;;;2.70;99.90;;;;;;4941675;28;20280;-71
2023/01/23 05:30:40;;;;;;;48.80;22.17;;;2.70;99.90;;;;;;4947523;28;20228;-71
2023/01/23 05:33:52;;;;;;;48.87;22.50;;;2.80;99.90;;;;;;4930732;28;20729;-69
2023/01/23 05:36:42;;;;;;;53.07;22.83;;;2.70;99.90;;;;;;4949247;28;20225;-69
2023/01/23 05:39:32;;;;;;;50.80;21.93;;;2.80;99.90;;;;;;4952152;28;20229;-69
2023/01/23 05:42:22;;;;;;;52.70;22.73;;;2.60;99.90;;;;;;4920042;29;20792;-70
2023/01/23 05:45:43;;;;;;;47.43;21.13;;;2.80;99.90;;;;;;4924336;28;20319;-71
2023/01/23 05:48:40;;;;;;;47.20;21.77;;;2.70;99.90;;;;;;4921312;29;20239;-69
2023/01/23 05:51:32;;;;;;;49.20;22.20;;;2.50;99.90;;;;;;4929600;28;20228;-68
2023/01/23 05:54:23;;;;;;;49.20;22.87;;;2.60;99.90;;;;;;4941996;28;21005;-70
2023/01/23 05:57:13;;;;;;;46.73;22.17;;;2.60;99.90;;;;;;4949308;28;20230;-71
2023/01/23 06:00:40;;;;;;;55.03;22.37;;;2.50;99.90;;;;;;4873256;29;21099;-69
2023/01/23 06:03:52;;;;;;;45.43;21.63;;;2.50;99.90;;;;;;4881580;29;20245;-67
2023/01/23 06:06:54;;;;;;;46.47;21.90;;;2.60;99.90;;;;;;4933505;28;20265;-70
2023/01/23 06:09:46;;;;;;;52.60;24.10;;;2.90;99.90;;;;;;4930252;28;20229;-68
2023/01/23 06:12:35;;;;;;;45.33;22.80;;;2.70;99.90;;;;;;4937600;28;21485;-70
2023/01/23 06:15:24;;;;;;;48.27;22.30;;;2.60;99.90;;;;;;4923404;28;20347;-69
2023/01/23 06:18:15;;;;;;;44.30;22.63;;;2.50;99.90;;;;;;4947450;28;20218;-68
2023/01/23 06:21:04;;;;;;;49.83;22.83;;;2.60;99.90;;;;;;4916149;28;20260;-69
2023/01/23 06:23:58;;;;;;;45.93;22.93;;;2.70;99.90;;;;;;4927880;28;20227;-67
2023/01/23 06:26:48;;;;;;;49.97;24.43;;;2.80;99.90;;;;;;4922361;28;20238;-70
2023/01/23 06:29:38;;;;;;;50.10;23.93;;;2.90;99.90;;;;;;4931037;28;20239;-70
2023/01/23 06:32:30;;;;;;;47.83;23.40;;;3.00;99.90;;;;;;4946949;28;20231;-69
2023/01/23 06:35:19;;;;;;;53.10;23.27;;;2.90;99.90;;;;;;4940966;28;20240;-68
2023/01/23 06:38:09;;;;;;;45.40;23.13;;;3.00;99.90;;;;;;4941072;28;20818;-72
2023/01/23 06:41:00;;;;;;;49.87;22.57;;;2.70;99.90;;;;;;4929891;28;20242;-71
2023/01/23 06:43:55;;;;;;;47.43;23.17;;;2.90;99.90;;;;;;4932637;28;20238;-69
2023/01/23 06:46:47;;;;;;;49.00;23.60;;;3.00;99.90;;;;;;4928392;28;20713;-68
2023/01/23 06:49:35;;;;;;;45.27;22.53;;;3.00;99.90;;;;;;4929263;28;20243;-69
2023/01/23 06:52:24;;;;;;;50.97;24.30;;;3.00;99.90;;;;;;4930525;28;20224;-68
2023/01/23 06:55:13;;;;;;;47.00;22.23;;;2.70;99.90;;;;;;4946834;28;20419;-68
2023/01/23 06:58:04;;;;;;;45.73;23.67;;;2.70;99.90;;;;;;4949085;28;20252;-69
2023/01/23 07:00:54;;;;;;;50.10;22.67;;;3.00;99.90;;;;;;4924880;28;20759;-68
2023/01/23 07:04:03;;;;;;;49.70;24.53;;;2.70;99.90;;;;;;4925097;28;20363;-67
2023/01/23 07:06:52;;;;;;;52.93;23.90;;;2.80;99.90;;;;;;4934277;28;20323;-68
2023/01/23 07:09:42;;;;;;;43.23;23.13;;;2.70;99.90;;;;;;4957500;28;20228;-69
2023/01/23 07:12:37;;;;;;;49.80;24.37;;;2.80;99.90;;;;;;4932195;28;20264;-68
2023/01/23 07:15:26;;;;;;;48.53;23.33;;;2.90;99.90;;;;;;4954904;28;20228;-69
2023/01/23 07:18:17;;;;;;;49.70;24.63;;;2.80;99.90;;;;;;4923466;28;20444;-69
2023/01/23 07:21:08;;;;;;;48.90;23.93;;;3.00;99.90;;;;;;4922443;28;20231;-71
2023/01/23 07:23:56;;;;;;;48.47;23.93;;;3.10;99.90;;;;;;4946243;28;20590;-69
2023/01/23 07:26:45;;;;;;;50.83;25.90;;;3.00;99.90;;;;;;4923468;29;20576;-73
2023/01/23 07:29:34;;;;;;;49.40;23.90;;;3.10;99.90;;;;;;4924578;28;20232;-72
2023/01/23 07:32:23;;;;;;;49.33;23.07;;;3.00;99.90;;;;;;4937141;28;20234;-70
2023/01/23 07:35:13;;;;;;;46.30;24.23;;;2.90;99.90;;;;;;4952105;28;20224;-68
2023/01/23 07:38:05;;;;;;;46.97;24.23;;;3.10;99.90;;;;;;4933921;28;20746;-69
2023/01/23 07:40:58;;;;;;;38.10;21.50;;;3.20;99.90;;;;;;4921925;28;20326;-68
2023/01/23 07:43:51;;;;;;;44.57;22.83;;;3.20;99.90;;;;;;4921221;28;20247;-72
2023/01/23 07:46:40;;;;;;;45.73;22.90;;;3.20;99.90;;;;;;4920101;28;20364;-70
2023/01/23 07:49:32;;;;;;;45.60;22.60;;;3.30;99.90;;;;;;4923228;28;20898;-73
2023/01/23 07:52:22;;;;;;;48.37;23.63;;;3.30;99.90;;;;;;4935456;28;20228;-73
2023/01/23 07:55:11;;;;;;;47.53;23.53;;;3.20;99.90;;;;;;4922228;28;20224;-71
2023/01/23 07:58:00;;;;;;;41.83;22.93;;;3.30;99.90;;;;;;4933113;28;20233;-68
2023/01/23 08:00:49;;;;;;;48.23;24.53;;;3.10;99.90;;;;;;4950390;28;20241;-70
2023/01/23 08:03:37;;;;;;;44.47;24.20;;;3.10;99.90;;;;;;4933525;28;20273;-69
2023/01/23 08:06:26;;;;;;;45.83;25.70;;;3.10;99.90;;;;;;4944199;28;20227;-67
2023/01/23 08:09:17;;;;;;;44.57;23.17;;;3.30;99.90;;;;;;4920405;29;20288;-67
2023/01/23 08:12:06;;;;;;;41.23;21.93;;;3.30;99.90;;;;;;4928759;28;20546;-69
2023/01/23 08:14:55;;;;;;;38.90;22.20;;;3.10;99.90;;;;;;4920534;29;20403;-71
2023/01/23 08:17:44;;;;;;;41.77;20.47;;;3.00;99.90;;;;;;4945600;28;20232;-64
2023/01/23 08:20:33;;;;;;;41.27;21.27;;;3.10;99.90;;;;;;4923112;28;20232;-66
2023/01/23 08:23:24;;;;;;;41.87;21.27;;;3.20;99.90;;;;;;4922585;29;20578;-65
2023/01/23 08:26:18;;;;;;;39.77;19.63;;;3.20;99.90;;;;;;4942513;28;20726;-65
2023/01/23 08:29:06;;;;;;;36.43;21.37;;;3.20;99.90;;;;;;4940357;28;20273;-65
2023/01/23 08:31:55;;;;;;;37.30;20.63;;;3.30;99.90;;;;;;4911782;28;20319;-65
2023/01/23 08:34:44;;;;;;;34.93;19.03;;;3.20;99.90;;;;;;4920023;28;20741;-66
2023/01/23 08:37:33;;;;;;;39.03;18.83;;;3.20;99.90;;;;;;4940835;28;20305;-67
2023/01/23 08:40:25;;;;;;;36.00;20.20;;;3.20;99.90;;;;;;4926443;28;20247;-66
2023/01/23 08:43:17;;;;;;;37.07;20.03;;;3.10;99.90;;;;;;4918138;28;20236;-68
2023/01/23 08:46:24;;;;;;;35.80;19.87;;;3.30;99.90;;;;;;4918274;28;20229;-65
2023/01/23 08:49:13;;;;;;;32.73;19.43;;;3.40;99.90;;;;;;4946587;28;20614;-66
2023/01/23 08:52:04;;;;;;;36.60;20.10;;;3.30;99.90;;;;;;4920215;28;20240;-65
2023/01/23 08:54:52;;;;;;;35.53;20.17;;;3.30;99.90;;;;;;4916863;28;20244;-66
2023/01/23 08:57:41;;;;;;;40.30;21.77;;;3.30;99.90;;;;;;4948518;28;20243;-66
2023/01/23 09:00:32;;;;;;;38.87;22.23;;;3.50;99.90;;;;;;4923446;28;20315;-67
2023/01/23 09:03:20;;;;;;;38.00;20.30;;;3.60;99.90;;;;;;4914777;29;20739;-66
2023/01/23 09:06:11;;;;;;;37.27;19.23;;;3.30;99.90;;;;;;4925206;28;20224;-67
2023/01/23 09:08:59;;;;;;;36.13;19.80;;;3.20;99.90;;;;;;4921812;28;20701;-66
2023/01/23 09:11:48;;;;;;;37.20;19.87;;;3.50;99.90;;;;;;4918823;29;20543;-68
2023/01/23 09:14:37;;;;;;;39.93;21.73;;;3.70;99.90;;;;;;4928949;28;20308;-68
2023/01/23 09:17:27;;;;;;;37.77;21.97;;;3.60;99.90;;;;;;4947539;28;20224;-67
2023/01/23 09:20:17;;;;;;;38.83;22.23;;;3.70;99.90;;;;;;4932609;28;20716;-66
2023/01/23 09:23:06;;;;;;;42.37;23.27;;;3.80;99.90;;;;;;4950933;28;20744;-65
2023/01/23 09:25:55;;;;;;;44.97;23.00;;;3.80;99.90;;;;;;4917135;28;20279;-66
2023/01/23 09:28:44;;;;;;;43.63;24.37;;;3.70;99.90;;;;;;4917771;28;20278;-66
2023/01/23 09:31:36;;;;;;;45.80;24.53;;;3.60;99.90;;;;;;4918850;28;20631;-66
2023/01/23 09:34:26;;;;;;;46.23;24.70;;;3.70;99.90;;;;;;4931911;28;20243;-67
2023/01/23 09:37:16;;;;;;;45.70;23.23;;;3.70;99.90;;;;;;4915766;28;20253;-66
2023/01/23 09:40:07;;;;;;;43.67;24.53;;;3.40;99.90;;;;;;4948563;28;20229;-66
2023/01/23 09:43:00;;;;;;;47.50;25.90;;;3.40;99.90;;;;;;4910071;29;20235;-66
2023/01/23 09:45:58;;;;;;;51.73;25.23;;;3.60;99.90;;;;;;4938239;28;20675;-67
2023/01/23 09:48:52;;;;;;;45.13;24.17;;;3.60;99.90;;;;;;4927985;28;20264;-68
2023/01/23 09:51:53;;;;;;;41.33;22.00;;;3.50;99.90;;;;;;4918222;28;20726;-67
2023/01/23 09:54:45;;;;;;;45.27;24.07;;;3.30;99.90;;;;;;4935669;28;20232;-64
2023/01/23 09:57:44;;;;;;;46.33;24.53;;;3.40;99.90;;;;;;4936041;28;20794;-67
2023/01/23 10:00:35;;;;;;;51.10;26.07;;;3.60;99.90;;;;;;4938876;28;20709;-65
2023/01/23 10:03:29;;;;;;;48.00;26.10;;;3.50;99.90;;;;;;4921243;28;20216;-66
2023/01/23 10:06:23;;;;;;;47.70;25.17;;;3.60;99.90;;;;;;4922549;29;20745;-68
2023/01/23 10:09:32;;;;;;;48.13;24.70;;;3.60;99.90;;;;;;4949241;28;20359;-66
2023/01/23 10:12:32;;;;;;;49.73;24.80;;;3.50;99.90;;;;;;4915893;28;20232;-67
2023/01/23 10:15:30;;;;;;;50.97;25.83;;;3.70;99.90;;;;;;4919008;28;20221;-66
2023/01/23 10:18:25;;;;;;;47.23;25.80;;;3.50;99.90;;;;;;4943104;28;20221;-66
2023/01/23 10:21:25;;;;;;;47.47;25.20;;;3.20;99.90;;;;;;4920990;28;20327;-66
2023/01/23 10:24:35;;;;;;;49.33;26.60;;;3.40;99.90;;;;;;4919263;29;20264;-67
2023/01/23 10:27:34;;;;;;;48.13;25.23;;;3.60;99.90;;;;;;4915960;29;20313;-68
2023/01/23 10:30:32;;;;;;;55.00;26.27;;;3.60;99.90;;;;;;4933159;28;20237;-65
2023/01/23 10:33:21;;;;;;;49.57;26.50;;;3.60;99.90;;;;;;4935893;28;20255;-64
2023/01/23 10:36:20;;;;;;;49.07;25.40;;;3.60;99.90;;;;;;4917725;29;20258;-67
2023/01/23 10:39:16;;;;;;;51.87;27.17;;;3.30;99.90;;;;;;4926966;28;20229;-65
2023/01/23 10:42:10;;;;;;;53.23;26.80;;;3.30;99.90;;;;;;4935120;28;20229;-67
2023/01/23 10:44:59;;;;;;;53.37;26.30;;;3.20;99.90;;;;;;4914059;29;20254;-67
2023/01/23 10:47:49;;;;;;;52.80;28.00;;;3.30;99.90;;;;;;4927273;28;20271;-66
2023/01/23 10:50:42;;;;;;;48.90;26.13;;;3.50;99.90;;;;;;4918641;28;20224;-64
2023/01/23 10:53:31;;;;;;;51.03;26.87;;;3.60;99.90;;;;;;4917489;28;20598;-68
2023/01/23 10:56:20;;;;;;;46.83;24.87;;;3.60;99.90;;;;;;4920735;29;20224;-67
2023/01/23 10:59:23;;;;;;;45.93;25.87;;;3.50;99.90;;;;;;4943709;28;20323;-64
2023/01/23 11:02:21;;;;;;;49.17;25.87;;;3.40;99.90;;;;;;4945154;28;20228;-68
2023/01/23 11:05:35;;;;;;;46.70;25.40;;;3.40;99.90;;;;;;4931485;28;22025;-67
2023/01/23 11:08:41;;;;;;;47.73;25.97;;;3.60;99.90;;;;;;4947784;28;20232;-67
2023/01/23 11:11:32;;;;;;;47.77;26.70;;;3.80;99.90;;;;;;4916343;28;20325;-67
2023/01/23 11:14:23;;;;;;;44.13;23.50;;;3.80;99.90;;;;;;4927388;28;20229;-65
2023/01/23 11:17:19;;;;;;;45.43;24.63;;;3.70;99.90;;;;;;4918253;28;20236;-66
2023/01/23 11:20:12;;;;;;;44.93;24.63;;;3.80;99.90;;;;;;4925105;28;20259;-67
2023/01/23 11:23:04;;;;;;;48.03;24.03;;;3.80;99.90;;;;;;4923364;28;20247;-66
2023/01/23 11:25:54;;;;;;;48.30;24.27;;;3.90;99.90;;;;;;4917319;28;20304;-66
2023/01/23 11:28:48;;;;;;;74.33;39.10;;;3.80;99.90;;;;;;4919482;28;20244;-66
2023/01/23 11:31:40;;;;;;;52.47;28.13;;;3.80;99.90;;;;;;4922246;28;20279;-66
2023/01/23 11:34:34;;;;;;;50.33;26.33;;;3.60;99.90;;;;;;4918580;28;20232;-68
2023/01/23 11:37:28;;;;;;;49.87;26.53;;;3.50;99.90;;;;;;4922128;28;20769;-66
2023/01/23 11:40:19;;;;;;;51.00;27.47;;;3.50;99.90;;;;;;4930141;28;20235;-67
2023/01/23 11:43:14;;;;;;;45.57;25.17;;;3.60;99.90;;;;;;4915645;28;20229;-67
2023/01/23 11:46:25;;;;;;;46.23;24.77;;;3.60;99.90;;;;;;4942587;28;20364;-64
2023/01/23 11:49:27;;;;;;;47.27;24.33;;;3.70;99.90;;;;;;4944587;28;20605;-66
2023/01/23 11:52:31;;;;;;;44.90;24.60;;;3.60;99.90;;;;;;4915233;28;20319;-66
2023/01/23 11:55:58;;;;;;;45.13;24.03;;;3.80;99.90;;;;;;4923785;28;20229;-65
2023/01/23 11:59:23;;;;;;;42.83;22.57;;;3.70;99.90;;;;;;4915571;28;20249;-66
2023/01/23 12:02:42;;;;;;;46.37;22.67;;;3.90;99.90;;;;;;4926876;28;20240;-66
2023/01/23 12:05:52;;;;;;;42.97;23.07;;;4.00;99.90;;;;;;4920575;28;20291;-66
2023/01/23 12:09:01;;;;;;;45.50;23.20;;;4.00;99.90;;;;;;4933199;28;20295;-65
2023/01/23 12:12:04;;;;;;;47.97;23.17;;;3.70;99.90;;;;;;4933177;28;20304;-66
2023/01/23 12:15:03;;;;;;;43.83;23.97;;;3.80;99.90;;;;;;4926422;28;20232;-68
2023/01/23 12:18:00;;;;;;;49.30;24.67;;;3.80;99.90;;;;;;4948151;28;20804;-67
2023/01/23 12:20:57;;;;;;;43.77;23.73;;;3.80;99.90;;;;;;4915933;28;20401;-69
2023/01/23 12:24:01;;;;;;;44.23;23.97;;;4.00;99.90;;;;;;4920260;28;20714;-69
2023/01/23 12:27:01;;;;;;;45.37;24.57;;;4.10;99.90;;;;;;4919772;28;20236;-68
2023/01/23 12:30:09;;;;;;;44.30;24.07;;;4.10;99.90;;;;;;4947528;28;20232;-67
2023/01/23 12:33:11;;;;;;;47.70;25.17;;;3.90;99.90;;;;;;4926082;28;20228;-65
2023/01/23 12:36:18;;;;;;;48.03;25.00;;;3.70;99.90;;;;;;4922409;28;20878;-71
2023/01/23 12:39:23;;;;;;;50.40;26.13;;;3.90;99.90;;;;;;4922790;28;20221;-67
2023/01/23 12:42:19;;;;;;;49.03;25.90;;;3.80;99.90;;;;;;4923839;28;20223;-69
2023/01/23 12:45:18;;;;;;;49.17;25.80;;;3.50;99.90;;;;;;4922171;28;20320;-69
2023/01/23 12:48:14;;;;;;;46.67;26.30;;;3.60;99.90;;;;;;4949221;28;20216;-69
2023/01/23 12:51:13;;;;;;;48.97;26.83;;;3.60;99.90;;;;;;4940451;28;20344;-68
2023/01/23 12:54:06;;;;;;;50.40;25.57;;;3.80;99.90;;;;;;4926785;28;20228;-69
2023/01/23 12:56:55;;;;;;;51.00;25.47;;;3.60;99.90;;;;;;4919201;28;20583;-67
2023/01/23 12:59:58;;;;;;;44.87;25.57;;;3.50;99.90;;;;;;4915762;29;21081;-69
2023/01/23 13:02:57;;;;;;;45.13;25.63;;;3.70;99.90;;;;;;4905548;28;20353;-70
2023/01/23 13:06:02;;;;;;;47.83;25.27;;;3.90;99.90;;;;;;4900479;29;20217;-64
2023/01/23 13:08:59;;;;;;;48.13;26.73;;;3.90;99.90;;;;;;4909043;29;20669;-67
2023/01/23 13:12:17;;;;;;;47.70;26.00;;;3.90;99.90;;;;;;4907798;28;20220;-66
2023/01/23 13:15:24;;;;;;;46.33;25.80;;;3.90;99.90;;;;;;4901285;29;20225;-65
2023/01/23 13:18:28;;;;;;;49.43;26.03;;;3.60;99.90;;;;;;4906748;29;20259;-66
2023/01/23 13:27:50;;;;;;;42.30;24.20;;;3.40;99.90;;;;;;4887133;29;20695;-68
2023/01/23 13:30:42;;;;;;;45.37;25.77;;;3.40;99.90;;;;;;4912869;29;20376;-66
2023/01/23 13:33:56;;;;;;;47.30;24.87;;;3.50;99.90;;;;;;4903658;28;20662;-68
2023/01/23 13:37:49;;;;;;;47.77;26.23;;;3.50;99.90;;;;;;4904892;29;20244;-65
2023/01/23 13:41:03;;;;;;;48.13;26.90;;;3.60;99.90;;;;;;4892045;29;20248;-69
2023/01/23 13:43:54;;;;;;;50.10;27.00;;;3.60;99.90;;;;;;4903071;29;20327;-70
2023/01/23 13:46:52;;;;;;;54.73;28.77;;;3.80;99.90;;;;;;4906957;28;20236;-69
2023/01/23 13:50:01;;;;;;;51.23;27.60;;;3.60;99.90;;;;;;4857965;29;20316;-66
2023/01/23 13:56:40;;;;;;;55.27;28.57;;;3.80;99.90;;;;;;4824597;29;20270;-67
2023/01/23 13:59:49;;;;;;;54.23;30.17;;;3.80;99.90;;;;;;4761920;29;20222;-65
2023/01/23 14:06:35;;;;;;;51.53;27.53;;;3.70;99.90;;;;;;4680438;30;20705;-67
2023/01/23 14:09:43;;;;;;;48.77;27.03;;;3.70;99.90;;;;;;4640669;30;20326;-71
2023/01/23 14:12:48;;;;;;;48.70;26.87;;;3.70;99.90;;;;;;4636425;30;20235;-69
2023/01/23 14:16:10;;;;;;;50.73;28.30;;;3.80;99.90;;;;;;4587556;30;20898;-69
2023/01/23 14:19:23;;;;;;;46.10;26.87;;;4.00;99.90;;;;;;4590207;30;20408;-67
2023/01/23 14:22:29;;;;;;;46.63;24.47;;;3.80;99.90;;;;;;4631641;30;20342;-67
2023/01/23 14:25:19;;;;;;;44.50;24.80;;;3.60;99.90;;;;;;4653444;30;20245;-65
2023/01/23 14:28:17;;;;;;;43.37;24.57;;;3.50;99.90;;;;;;4685687;30;20240;-65
2023/01/23 14:31:14;;;;;;;44.10;25.53;;;3.40;99.90;;;;;;4748333;29;20226;-66
2023/01/23 14:34:04;;;;;;;43.67;25.30;;;3.60;99.90;;;;;;4796473;29;20228;-68
2023/01/23 14:37:03;;;;;;;40.23;24.60;;;3.50;99.90;;;;;;4837474;29;21005;-67
2023/01/23 14:39:52;;;;;;;44.60;25.17;;;3.60;99.90;;;;;;4834855;29;20230;-70
2023/01/23 14:42:43;;;;;;;44.10;25.10;;;3.60;99.90;;;;;;4882114;29;20313;-67
2023/01/23 14:45:34;;;;;;;43.13;25.07;;;3.60;99.90;;;;;;4861064;29;20316;-68
2023/01/23 14:48:23;;;;;;;43.27;26.10;;;3.50;99.90;;;;;;4900536;29;20599;-68
2023/01/23 14:51:18;;;;;;;44.70;24.87;;;3.40;99.90;;;;;;4889828;29;20738;-67
2023/01/23 14:54:18;;;;;;;45.13;24.87;;;3.40;99.90;;;;;;4903372;29;20268;-67
2023/01/23 14:57:12;;;;;;;42.83;24.90;;;3.60;99.90;;;;;;4903495;29;20225;-68
2023/01/23 15:00:04;;;;;;;45.17;24.80;;;3.60;99.90;;;;;;4905512;29;20272;-67
2023/01/23 15:02:55;;;;;;;44.47;24.43;;;3.60;99.90;;;;;;4897668;29;20785;-66
2023/01/23 15:05:58;;;;;;;43.97;24.40;;;3.60;99.90;;;;;;4900564;29;20289;-67
2023/01/23 15:08:49;;;;;;;41.87;23.77;;;3.70;99.90;;;;;;4898747;29;20218;-67
2023/01/23 15:11:37;;;;;;;41.00;24.40;;;3.60;99.90;;;;;;4887809;29;20233;-66